Time;durP1;ratioP1;P1;durP2;ratioP2;P2;SDS_P1;SDS_P2;PMS_P1;PMS_P2;Temp;Humidity;BMP_temperature;BMP_pressure;BME280_temperature;BME280_humidity;BME280_pressure;Samples;Min_cycle;Max_cycle;Signal;HPM_P1;HPM_P2
2021/06/14 19:27:25;;;;;;;9.40;2.67;;;;;;;21.02;49.50;95760.84;1060416;27;20354;-79
2021/06/14 19:27:55;;;;;;;8.00;3.40;;;;;;;20.94;49.22;95761.28;1047892;28;20029;-77
2021/06/14 19:28:26;;;;;;;8.13;2.88;;;;;;;21.04;49.41;95769.56;1031614;28;20049;-82
2021/06/14 19:28:57;;;;;;;11.13;3.30;;;;;;;21.06;48.96;95772.81;1034744;28;20113;-78
2021/06/14 19:29:27;;;;;;;8.68;2.85;;;;;;;20.98;49.78;95755.13;1037919;28;20089;-78
2021/06/14 19:29:58;;;;;;;7.10;2.70;;;;;;;20.91;49.92;95755.28;1035587;28;20145;-80
2021/06/14 19:30:28;;;;;;;5.13;2.35;;;;;;;20.87;50.41;95764.16;1040026;28;20105;-78
2021/06/14 19:30:59;;;;;;;8.43;2.58;;;;;;;20.76;50.54;95755.06;1035860;28;20021;-80
2021/06/14 19:31:29;;;;;;;9.30;2.97;;;;;;;20.76;50.74;95767.72;1030611;28;20014;-79
2021/06/14 19:32:00;;;;;;;5.75;2.70;;;;;;;20.74;50.67;95764.47;1034033;28;20053;-78
2021/06/14 19:32:31;;;;;;;5.95;3.05;;;;;;;20.69;50.85;95763.34;1044307;28;20526;-79
2021/06/14 19:33:02;;;;;;;7.65;2.80;;;;;;;20.72;50.80;95775.50;1035738;28;20088;-81
2021/06/14 19:33:33;;;;;;;7.80;2.72;;;;;;;20.54;51.10;95761.16;1031580;28;20023;-78
2021/06/14 19:34:03;;;;;;;7.78;2.92;;;;;;;20.66;50.96;95784.59;1037823;28;20049;-78
2021/06/14 19:34:34;;;;;;;8.80;2.60;;;;;;;20.61;50.99;95773.69;1041182;28;20384;-79
2021/06/14 19:35:05;;;;;;;9.38;2.97;;;;;;;20.54;51.13;95771.94;1031583;28;20023;-80
2021/06/14 19:35:36;;;;;;;7.55;3.10;;;;;;;20.64;51.01;95781.28;1027813;28;20457;-80
2021/06/14 19:36:07;;;;;;;8.30;2.70;;;;;;;20.63;51.38;95776.97;1031764;28;20352;-78
2021/06/14 19:36:37;;;;;;;6.28;2.67;;;;;;;20.61;50.75;95781.78;1031822;28;20105;-80
2021/06/14 19:37:09;;;;;;;8.18;2.63;;;;;;;20.58;50.96;95779.56;1039553;28;20092;-80
2021/06/14 19:37:40;;;;;;;8.32;2.65;;;;;;;20.63;50.83;95785.88;1035824;28;20022;-80
2021/06/14 19:38:11;;;;;;;6.40;2.45;;;;;;;20.63;50.77;95785.88;1043660;28;20029;-79
2021/06/14 19:38:41;;;;;;;8.32;2.90;;;;;;;20.61;51.67;95789.88;1036041;28;20101;-78
2021/06/14 19:39:12;;;;;;;6.00;2.63;;;;;;;20.62;51.36;95800.47;1035901;28;20116;-79
2021/06/14 19:39:43;;;;;;;5.40;2.50;;;;;;;20.59;50.71;95790.09;1036134;28;20022;-78
2021/06/14 19:40:14;;;;;;;6.05;2.65;;;;;;;20.60;50.59;95788.22;1036044;28;20069;-79
2021/06/14 19:40:45;;;;;;;8.35;2.40;;;;;;;20.54;50.84;95781.94;1040477;28;20084;-80
2021/06/14 19:41:15;;;;;;;5.85;2.45;;;;;;;20.52;50.56;95773.25;1031797;28;20109;-80
2021/06/14 19:41:47;;;;;;;7.75;2.70;;;;;;;20.61;51.17;95797.97;1036036;28;20598;-80
2021/06/14 19:42:22;;;;;;;7.03;2.78;;;;;;;20.52;51.25;95784.88;1031849;28;20071;-82
2021/06/14 19:42:53;;;;;;;5.72;2.58;;;;;;;20.50;51.19;95783.47;1035997;28;20113;-79
2021/06/14 19:43:24;;;;;;;6.47;2.45;;;;;;;20.53;51.11;95780.28;1035893;28;20018;-80
2021/06/14 19:43:54;;;;;;;7.70;3.00;;;;;;;20.59;51.41;95797.41;1036192;28;20072;-81
2021/06/14 19:44:25;;;;;;;10.38;3.13;;;;;;;20.52;51.60;95792.97;1035994;28;20170;-81
2021/06/14 19:44:57;;;;;;;5.80;3.58;;;;;;;20.54;51.58;95788.13;1035798;28;20109;-85
2021/06/14 19:45:28;;;;;;;7.20;3.97;;;;;;;20.52;51.61;95784.88;1048229;28;20029;-81
2021/06/14 19:45:59;;;;;;;7.75;3.90;;;;;;;20.56;51.50;95795.19;1039925;28;20483;-80
2021/06/14 19:46:29;;;;;;;8.10;3.92;;;;;;;20.51;51.57;95785.91;1041096;28;20088;-78
2021/06/14 19:47:00;;;;;;;8.68;4.05;;;;;;;20.46;51.50;95775.03;1040475;28;20475;-79
2021/06/14 19:47:31;;;;;;;6.07;3.40;;;;;;;20.58;50.81;95796.56;1040842;28;20022;-81
2021/06/14 19:48:02;;;;;;;8.52;3.80;;;;;;;20.47;50.90;95776.69;1040308;28;20029;-80
2021/06/14 19:48:32;;;;;;;5.53;2.58;;;;;;;20.61;50.40;95796.06;1036804;28;20018;-78
2021/06/14 19:49:03;;;;;;;9.10;2.88;;;;;;;20.54;50.47;95781.94;1032732;28;20404;-78
2021/06/14 19:49:34;;;;;;;8.20;2.88;;;;;;;20.67;50.20;95799.72;1039467;28;20041;-78
2021/06/14 19:50:06;;;;;;;7.82;2.80;;;;;;;20.61;49.99;95787.97;1041820;28;20010;-80
2021/06/14 19:50:39;;;;;;;6.95;2.55;;;;;;;20.57;50.29;95784.16;1033567;28;20027;-80
2021/06/14 19:51:10;;;;;;;5.72;2.85;;;;;;;20.64;50.57;95805.59;1032439;28;20095;-78
2021/06/14 19:51:40;;;;;;;7.97;3.25;;;;;;;20.60;51.00;95801.72;1035511;28;20105;-80
2021/06/14 19:52:11;;;;;;;6.10;2.63;;;;;;;20.60;50.38;95801.72;1038119;28;20050;-78
2021/06/14 19:52:42;;;;;;;5.95;2.28;;;;;;;20.59;50.28;95798.22;1035894;28;20173;-80
2021/06/14 19:53:13;;;;;;;9.00;3.03;;;;;;;20.58;50.36;95793.03;1032382;28;20048;-80
2021/06/14 19:53:43;;;;;;;9.55;3.00;;;;;;;20.45;50.65;95765.31;1032293;28;20041;-84
2021/06/14 19:54:14;;;;;;;5.15;2.70;;;;;;;20.58;50.44;95796.56;1040157;28;20076;-80
2021/06/14 19:54:44;;;;;;;9.70;2.80;;;;;;;20.41;50.50;95777.66;1031870;28;20035;-79
2021/06/14 19:55:16;;;;;;;7.72;2.50;;;;;;;20.39;50.58;95787.84;1035695;28;20030;-80
2021/06/14 19:55:47;;;;;;;6.30;2.65;;;;;;;20.49;50.65;95801.53;1044159;28;20024;-81
2021/06/14 19:56:18;;;;;;;7.95;2.85;;;;;;;20.48;50.77;95801.78;1046399;28;20483;-80
2021/06/14 19:56:48;;;;;;;6.53;2.35;;;;;;;20.45;51.09;95805.78;1037112;28;20118;-78
2021/06/14 19:57:19;;;;;;;9.98;2.72;;;;;;;20.47;50.94;95811.75;1041626;28;20014;-80
2021/06/14 19:57:49;;;;;;;9.43;3.15;;;;;;;20.47;50.99;95809.06;1032071;28;20082;-81
2021/06/14 19:58:20;;;;;;;7.88;2.90;;;;;;;20.37;50.98;95789.97;1028120;28;20092;-80
2021/06/14 19:58:51;;;;;;;5.95;2.53;;;;;;;20.42;51.02;95800.88;1032203;28;20117;-79
2021/06/14 19:59:22;;;;;;;6.88;3.20;;;;;;;20.37;51.09;95791.88;1032099;28;20094;-78
2021/06/14 19:59:54;;;;;;;8.10;2.90;;;;;;;20.32;51.07;95785.31;1036000;28;20082;-80
2021/06/14 20:00:25;;;;;;;6.38;2.78;;;;;;;20.32;51.08;95785.31;1036168;28;20514;-81
2021/06/14 20:00:55;;;;;;;6.85;2.85;;;;;;;20.38;51.36;95802.41;1028148;28;20106;-81
2021/06/14 20:01:26;;;;;;;5.93;2.70;;;;;;;20.34;51.38;95793.16;1036186;28;20105;-81
2021/06/14 20:01:57;;;;;;;12.02;3.10;;;;;;;20.28;51.43;95791.44;1040279;28;20022;-81
2021/06/14 20:02:27;;;;;;;8.00;2.70;;;;;;;20.30;51.45;95787.44;1035942;28;20128;-81
2021/06/14 20:02:58;;;;;;;8.55;2.97;;;;;;;20.37;51.30;95802.66;1036315;28;20440;-79
2021/06/14 20:03:29;;;;;;;6.32;2.55;;;;;;;20.27;51.47;95805.97;1044342;28;20097;-79
2021/06/14 20:03:59;;;;;;;8.13;3.10;;;;;;;20.33;51.67;95810.41;1031761;28;20022;-79
2021/06/14 20:04:31;;;;;;;7.32;3.22;;;;;;;20.15;51.57;95781.75;1036086;28;20109;-82
2021/06/14 20:05:02;;;;;;;7.95;3.20;;;;;;;20.21;51.61;95796.16;1032280;28;20489;-81
2021/06/14 20:05:32;;;;;;;9.70;2.90;;;;;;;20.25;51.84;95811.59;1031917;28;20030;-80
2021/06/14 20:06:03;;;;;;;7.47;2.92;;;;;;;20.20;51.88;95802.59;1031864;28;20026;-78
2021/06/14 20:06:34;;;;;;;5.30;3.03;;;;;;;20.15;51.92;95793.38;1035579;28;20123;-80
2021/06/14 20:07:04;;;;;;;10.50;2.88;;;;;;;20.10;51.81;95790.56;1028050;28;20113;-82
2021/06/14 20:07:35;;;;;;;6.10;2.65;;;;;;;20.16;51.96;95797.69;1039777;28;20112;-80
2021/06/14 20:08:06;;;;;;;10.18;2.90;;;;;;;20.10;51.98;95793.25;1035646;28;20019;-80
2021/06/14 20:08:36;;;;;;;6.15;2.50;;;;;;;20.18;52.11;95794.75;1035119;28;20112;-80
2021/06/14 20:09:07;;;;;;;5.57;2.90;;;;;;;20.26;51.95;95813.25;1035702;28;20076;-80
2021/06/14 20:09:37;;;;;;;9.27;3.90;;;;;;;20.19;52.89;95809.06;1048420;28;20021;-80
2021/06/14 20:10:09;;;;;;;8.73;3.17;;;;;;;20.15;52.58;95804.16;1039853;28;20052;-82
2021/06/14 20:10:40;;;;;;;11.77;3.47;;;;;;;20.09;52.39;95797.00;1031588;28;20018;-79
2021/06/14 20:11:10;;;;;;;8.43;2.95;;;;;;;20.01;52.21;95785.78;1043809;28;20017;-79
2021/06/14 20:11:47;;;;;;;10.35;3.20;;;;;;;20.17;52.36;95803.91;1031740;28;20534;-80
2021/06/14 20:12:18;;;;;;;10.23;2.60;;;;;;;20.22;52.25;95817.50;1027940;28;20022;-81
2021/06/14 20:12:50;;;;;;;8.73;2.50;;;;;;;20.25;52.47;95816.19;1039577;28;20075;-79
2021/06/14 20:13:21;;;;;;;4.80;2.42;;;;;;;20.18;52.49;95815.50;1031719;28;20041;-80
2021/06/14 20:13:51;;;;;;;8.95;2.80;;;;;;;20.19;52.64;95822.56;1035892;28;20098;-82
2021/06/14 20:14:22;;;;;;;7.55;3.03;;;;;;;20.08;52.52;95795.38;1035645;28;20112;-80
2021/06/14 20:14:53;;;;;;;6.00;2.67;;;;;;;20.13;52.65;95808.97;1035571;28;20010;-80
2021/06/14 20:15:24;;;;;;;9.45;2.88;;;;;;;20.13;52.76;95802.75;1035674;28;20018;-80
2021/06/14 20:15:54;;;;;;;6.80;2.40;;;;;;;19.97;52.84;95782.75;1039506;28;20013;-79
2021/06/14 20:16:25;;;;;;;8.18;2.78;;;;;;;20.07;52.65;95790.22;1035577;28;20510;-80
2021/06/14 20:16:56;;;;;;;9.68;3.35;;;;;;;20.13;52.56;95800.03;1035319;28;20109;-80
2021/06/14 20:17:26;;;;;;;6.90;2.90;;;;;;;20.13;52.54;95803.56;1035677;28;20029;-79
2021/06/14 20:17:57;;;;;;;7.50;2.75;;;;;;;19.94;52.67;95786.75;1027320;28;20037;-78
2021/06/14 20:18:28;;;;;;;9.10;2.50;;;;;;;19.99;52.77;95799.50;1035488;28;20048;-78
2021/06/14 20:18:58;;;;;;;5.38;2.60;;;;;;;20.06;52.90;95812.84;1043718;28;20506;-79
2021/06/14 20:19:29;;;;;;;5.53;2.42;;;;;;;20.01;52.92;95807.34;1039649;28;20022;-80
2021/06/14 20:20:00;;;;;;;5.68;2.67;;;;;;;20.02;52.73;95806.31;1031722;28;20408;-81
2021/06/14 20:20:30;;;;;;;8.43;2.47;;;;;;;20.01;52.89;95800.09;1031754;28;20094;-80
2021/06/14 20:21:01;;;;;;;7.20;2.42;;;;;;;20.01;53.32;95799.25;1040279;28;20096;-80
2021/06/14 20:21:31;;;;;;;13.10;3.40;;;;;;;19.95;53.20;95801.03;1035804;28;20641;-80
2021/06/14 20:22:02;;;;;;;9.73;3.15;;;;;;;19.98;53.13;95800.56;1035877;28;20022;-79
2021/06/14 20:22:33;;;;;;;6.57;2.65;;;;;;;20.02;53.24;95807.13;1043914;28;20017;-80
2021/06/14 20:23:08;;;;;;;6.63;2.25;;;;;;;19.99;53.10;95804.06;1035591;28;20780;-80
2021/06/14 20:23:39;;;;;;;10.07;2.72;;;;;;;19.94;53.26;95791.31;1035582;28;20029;-79
2021/06/14 20:24:10;;;;;;;7.72;3.30;;;;;;;19.96;53.25;95797.31;1043631;28;20355;-79
2021/06/14 20:24:40;;;;;;;5.72;2.65;;;;;;;20.07;53.31;95815.31;1044045;28;20009;-79
2021/06/14 20:25:12;;;;;;;4.18;2.38;;;;;;;20.03;53.30;95803.38;1039441;28;20112;-79
2021/06/14 20:25:43;;;;;;;5.72;2.72;;;;;;;19.94;53.25;95794.00;1035675;28;20022;-79
2021/06/14 20:26:13;;;;;;;8.20;2.92;;;;;;;20.03;53.12;95807.94;1031775;28;20030;-80
2021/06/14 20:26:44;;;;;;;7.45;2.92;;;;;;;19.96;53.21;95800.00;1035621;28;20141;-80
2021/06/14 20:27:15;;;;;;;4.32;2.28;;;;;;;20.06;53.15;95812.84;1039605;28;20040;-78
2021/06/14 20:27:47;;;;;;;5.72;2.80;;;;;;;20.05;53.36;95816.63;1035748;28;20113;-78
2021/06/14 20:28:18;;;;;;;6.05;2.55;;;;;;;19.86;53.49;95780.91;1039682;28;20029;-80
2021/06/14 20:28:49;;;;;;;7.18;2.85;;;;;;;19.94;53.61;95800.25;1039656;28;20484;-79
2021/06/14 20:29:20;;;;;;;6.55;2.50;;;;;;;19.97;53.36;95799.72;1031601;28;20046;-79
2021/06/14 20:29:54;;;;;;;4.80;2.83;;;;;;;19.96;53.42;95808.91;1043749;28;20118;-78
2021/06/14 20:30:24;;;;;;;6.72;2.80;;;;;;;19.81;53.56;95778.13;1035763;28;20022;-79
2021/06/14 20:30:55;;;;;;;7.40;2.83;;;;;;;19.95;53.63;95806.44;1035945;28;20420;-80
2021/06/14 20:31:26;;;;;;;9.88;2.80;;;;;;;19.87;53.44;95791.47;1043904;28;20531;-78
2021/06/14 20:31:56;;;;;;;7.93;3.58;;;;;;;19.88;54.08;95794.97;1031698;28;20029;-80
2021/06/14 20:32:27;;;;;;;8.40;3.05;;;;;;;19.89;53.89;95805.53;1039616;28;20028;-79
2021/06/14 20:32:57;;;;;;;8.95;3.60;;;;;;;19.90;53.92;95803.63;1043856;28;20044;-80
2021/06/14 20:33:28;;;;;;;6.18;2.72;;;;;;;19.60;53.80;95759.63;1032156;28;20141;-80
2021/06/14 20:33:59;;;;;;;8.27;3.58;;;;;;;19.81;54.09;95795.09;1043672;28;20420;-80
2021/06/14 20:34:29;;;;;;;7.13;4.05;;;;;;;19.86;54.20;95807.88;1044357;28;20097;-80
2021/06/14 20:35:00;;;;;;;7.28;3.60;;;;;;;19.87;54.05;95807.66;1035689;28;20090;-79
2021/06/14 20:35:31;;;;;;;8.40;3.95;;;;;;;19.74;54.40;95792.53;1027508;28;20023;-79
2021/06/14 20:36:01;;;;;;;6.28;3.45;;;;;;;19.81;54.83;95810.47;1039614;28;20021;-81
2021/06/14 20:36:32;;;;;;;7.80;3.13;;;;;;;19.75;54.98;95809.50;1039632;28;20515;-78
2021/06/14 20:37:03;;;;;;;7.82;2.92;;;;;;;19.62;55.01;95789.00;1039385;28;20014;-78
2021/06/14 20:37:34;;;;;;;5.63;2.70;;;;;;;19.58;55.30;95798.63;1043469;28;20032;-77
2021/06/14 20:38:04;;;;;;;5.90;3.30;;;;;;;19.58;55.03;95793.25;1039318;28;20013;-78
2021/06/14 20:38:36;;;;;;;8.00;3.42;;;;;;;19.64;55.28;95811.16;1038615;28;20014;-79
2021/06/14 20:39:06;;;;;;;7.55;3.22;;;;;;;19.40;55.67;95776.19;1032512;28;20419;-79
2021/06/14 20:39:37;;;;;;;7.03;3.72;;;;;;;19.56;55.43;95792.66;1032842;28;20018;-80
2021/06/14 20:40:08;;;;;;;7.13;3.00;;;;;;;19.52;55.74;95807.66;1036859;28;20117;-79
2021/06/14 20:40:39;;;;;;;7.25;2.85;;;;;;;19.51;55.65;95798.75;1037678;28;20361;-80
2021/06/14 20:41:10;;;;;;;9.82;3.97;;;;;;;19.44;55.34;95797.22;1029093;28;20029;-79
2021/06/14 20:41:40;;;;;;;5.20;2.90;;;;;;;19.41;55.60;95796.66;1037109;28;20064;-79
2021/06/14 20:42:11;;;;;;;9.80;4.82;;;;;;;19.31;56.12;95791.03;1037426;28;20121;-79
2021/06/14 20:42:41;;;;;;;6.55;3.75;;;;;;;19.45;56.01;95810.47;1038078;28;20076;-79
2021/06/14 20:43:12;;;;;;;9.15;3.22;;;;;;;19.48;55.80;95815.38;1038493;28;20108;-80
2021/06/14 20:43:43;;;;;;;6.97;2.97;;;;;;;19.46;55.99;95808.59;1042461;28;20017;-80
2021/06/14 20:44:13;;;;;;;6.55;3.13;;;;;;;19.42;56.23;95810.97;1033431;28;20381;-78
2021/06/14 20:44:44;;;;;;;6.60;2.72;;;;;;;19.36;56.14;95809.19;1037844;28;20032;-80
2021/06/14 20:45:14;;;;;;;6.60;3.05;;;;;;;19.38;56.18;95807.06;1037346;28;20045;-80
2021/06/14 20:45:45;;;;;;;8.85;2.70;;;;;;;19.29;56.29;95795.84;1041437;28;20022;-80
2021/06/14 20:46:16;;;;;;;4.43;2.50;;;;;;;19.36;56.50;95814.56;1033236;28;20018;-80
2021/06/14 20:46:46;;;;;;;6.13;2.60;;;;;;;19.27;56.23;95799.84;1032885;28;20397;-80
2021/06/14 20:47:17;;;;;;;10.93;2.90;;;;;;;19.37;56.54;95821.63;1033177;28;20076;-80
2021/06/14 20:47:47;;;;;;;8.68;2.65;;;;;;;19.35;55.75;95811.06;1033258;28;20479;-79
2021/06/14 20:48:18;;;;;;;8.13;2.70;;;;;;;19.31;56.11;95811.75;1041529;28;20029;-80
2021/06/14 20:48:49;;;;;;;7.15;2.97;;;;;;;19.14;56.86;95798.19;1045594;28;20063;-79
2021/06/14 20:49:19;;;;;;;7.50;2.85;;;;;;;19.26;56.83;95814.34;1037324;28;20395;-79
2021/06/14 20:49:50;;;;;;;8.98;3.20;;;;;;;19.33;56.12;95817.72;1041542;28;20189;-79
2021/06/14 20:50:20;;;;;;;5.25;3.08;;;;;;;19.26;56.39;95804.38;1049493;28;20112;-80
2021/06/14 20:50:51;;;;;;;8.27;3.05;;;;;;;19.33;56.66;95813.19;1037343;28;20120;-79
2021/06/14 20:51:21;;;;;;;6.72;2.67;;;;;;;19.09;56.86;95782.75;1029192;28;20505;-80
2021/06/14 20:51:52;;;;;;;5.80;2.67;;;;;;;19.30;56.75;95826.31;1037167;28;20136;-81
2021/06/14 20:52:23;;;;;;;4.95;2.72;;;;;;;19.12;57.04;95801.09;1033107;28;20038;-79
2021/06/14 20:52:54;;;;;;;6.75;2.78;;;;;;;19.27;56.95;95822.19;1029194;28;20054;-79
2021/06/14 20:53:24;;;;;;;4.93;2.85;;;;;;;19.27;56.94;95819.50;1033310;28;20077;-78
2021/06/14 20:53:55;;;;;;;10.07;2.78;;;;;;;19.22;56.48;95806.72;1032787;28;20022;-80
2021/06/14 20:54:25;;;;;;;6.40;2.90;;;;;;;19.28;56.50;95821.16;1037098;28;20451;-79
2021/06/14 20:54:56;;;;;;;5.95;2.65;;;;;;;19.28;56.73;95820.31;1032994;28;20105;-78
2021/06/14 20:55:27;;;;;;;7.80;3.05;;;;;;;19.21;56.65;95815.88;1040864;28;20124;-80
2021/06/14 20:55:57;;;;;;;6.32;2.95;;;;;;;19.26;56.54;95822.41;1037031;28;20507;-79
2021/06/14 20:56:28;;;;;;;5.03;2.78;;;;;;;19.19;56.39;95803.69;1032594;28;20032;-79
2021/06/14 20:56:59;;;;;;;5.50;3.30;;;;;;;19.17;56.41;95805.78;1036928;28;20133;-79
2021/06/14 20:57:29;;;;;;;12.27;3.38;;;;;;;19.12;56.98;95809.19;1032815;28;20030;-79
2021/06/14 20:58:00;;;;;;;7.30;2.53;;;;;;;19.18;56.99;95828.97;1036759;28;20032;-80
2021/06/14 20:58:30;;;;;;;7.50;3.03;;;;;;;19.14;57.15;95815.16;1040887;28;20080;-79
2021/06/14 20:59:01;;;;;;;8.85;2.95;;;;;;;18.92;57.36;95788.00;1041067;28;20108;-79
2021/06/14 20:59:32;;;;;;;5.80;2.88;;;;;;;19.00;57.43;95811.88;1032647;28;20041;-80
2021/06/14 21:00:06;;;;;;;5.50;2.75;;;;;;;19.08;57.44;95821.47;1032865;28;20106;-79
2021/06/14 21:00:37;;;;;;;8.13;2.75;;;;;;;19.04;57.26;95817.63;1040933;28;20391;-80
2021/06/14 21:01:08;;;;;;;7.18;2.90;;;;;;;18.98;57.32;95814.00;1037064;28;20116;-80
2021/06/14 21:01:39;;;;;;;11.75;3.05;;;;;;;19.01;57.46;95813.50;1033027;28;20044;-79
2021/06/14 21:02:10;;;;;;;7.72;2.60;;;;;;;18.72;57.41;95765.94;1029828;28;20420;-80
2021/06/14 21:02:40;;;;;;;5.78;2.40;;;;;;;18.90;57.61;95802.75;1046128;28;20021;-78
2021/06/14 21:03:11;;;;;;;7.05;2.67;;;;;;;18.94;57.91;95814.69;1037520;28;20026;-78
2021/06/14 21:03:42;;;;;;;5.32;3.15;;;;;;;18.87;57.76;95822.03;1033187;28;20030;-78
2021/06/14 21:04:12;;;;;;;8.13;3.00;;;;;;;18.82;58.05;95803.88;1037347;28;20052;-80
2021/06/14 21:04:43;;;;;;;9.10;3.30;;;;;;;18.94;58.09;95830.81;1041496;28;20104;-80
2021/06/14 21:05:13;;;;;;;6.45;2.60;;;;;;;18.79;58.24;95815.06;1045458;28;20129;-80
2021/06/14 21:05:45;;;;;;;5.15;2.78;;;;;;;18.81;58.48;95829.16;1036822;28;20032;-79
2021/06/14 21:06:15;;;;;;;5.15;2.53;;;;;;;18.86;58.27;95826.56;1044849;28;20029;-78
2021/06/14 21:06:49;;;;;;;6.30;2.60;;;;;;;18.73;58.22;95816.00;1036917;28;20088;-80
2021/06/14 21:07:20;;;;;;;8.48;3.33;;;;;;;18.72;58.54;95806.28;1040924;28;20116;-78
2021/06/14 21:07:51;;;;;;;5.47;2.70;;;;;;;18.83;58.78;95833.25;1036974;28;20065;-78
2021/06/14 21:08:21;;;;;;;4.60;2.53;;;;;;;18.86;58.61;95836.53;1032658;28;20109;-79
2021/06/14 21:08:52;;;;;;;5.70;2.63;;;;;;;18.85;58.52;95830.34;1040711;28;20104;-77
2021/06/14 21:09:26;;;;;;;10.18;2.70;;;;;;;18.83;58.78;95825.19;1040873;28;20107;-78
2021/06/14 21:09:56;;;;;;;5.60;2.75;;;;;;;18.84;58.86;95828.69;1036861;28;20439;-79
2021/06/14 21:10:27;;;;;;;5.10;2.35;;;;;;;18.82;58.76;95828.91;1024773;28;20058;-80
2021/06/14 21:10:58;;;;;;;7.10;2.88;;;;;;;18.69;59.28;95809.44;1041045;28;20017;-78
2021/06/14 21:11:28;;;;;;;4.93;2.63;;;;;;;18.76;59.14;95820.94;1036760;28;20034;-78
2021/06/14 21:11:59;;;;;;;5.97;2.92;;;;;;;18.79;59.23;95825.84;1040782;28;20021;-79
2021/06/14 21:12:29;;;;;;;8.50;3.03;;;;;;;18.70;59.00;95817.28;1037053;28;20566;-78
2021/06/14 21:13:00;;;;;;;7.70;2.85;;;;;;;18.77;59.05;95828.75;1041099;28;20026;-81
2021/06/14 21:13:30;;;;;;;5.72;3.17;;;;;;;18.65;59.17;95801.84;1033000;28;20060;-79
2021/06/14 21:14:01;;;;;;;6.75;2.63;;;;;;;18.74;59.33;95813.09;1033013;28;20088;-80
2021/06/14 21:14:32;;;;;;;6.55;2.80;;;;;;;18.75;59.07;95824.66;1033227;28;20512;-80
2021/06/14 21:15:04;;;;;;;6.90;2.90;;;;;;;18.74;58.75;95825.72;1045054;28;20031;-79
2021/06/14 21:15:35;;;;;;;5.45;2.78;;;;;;;18.77;58.67;95831.44;1041371;28;20021;-80
2021/06/14 21:16:06;;;;;;;5.20;2.88;;;;;;;18.65;58.72;95809.91;1033399;28;20067;-79
2021/06/14 21:16:38;;;;;;;7.57;2.90;;;;;;;18.78;58.91;95827.72;1041688;28;20021;-80
2021/06/14 21:17:08;;;;;;;8.15;3.20;;;;;;;18.71;58.92;95815.44;1041053;28;20021;-79
2021/06/14 21:17:39;;;;;;;6.68;2.70;;;;;;;18.68;59.09;95813.19;1036770;28;20183;-79
2021/06/14 21:18:09;;;;;;;4.05;2.45;;;;;;;18.73;58.76;95810.63;1036699;28;20093;-78
2021/06/14 21:18:40;;;;;;;7.40;3.20;;;;;;;18.81;58.80;95832.66;1028808;28;20058;-77
2021/06/14 21:19:10;;;;;;;6.97;2.90;;;;;;;18.81;58.83;95829.16;1036779;28;20128;-78
2021/06/14 21:19:41;;;;;;;8.55;3.05;;;;;;;18.80;58.76;95824.78;1041310;28;20040;-79
2021/06/14 21:20:12;;;;;;;7.70;3.33;;;;;;;18.78;58.83;95822.34;1041280;28;20044;-79
2021/06/14 21:20:43;;;;;;;8.20;2.85;;;;;;;18.75;58.58;95808.53;1029262;28;20480;-78
2021/06/14 21:21:14;;;;;;;7.10;2.70;;;;;;;18.71;58.31;95812.75;1036969;28;20089;-78
2021/06/14 21:21:44;;;;;;;5.10;2.63;;;;;;;18.68;57.67;95803.25;1028612;28;20118;-78
2021/06/14 21:22:15;;;;;;;4.00;2.10;;;;;;;18.43;57.79;95763.09;1032990;28;20562;-79
2021/06/14 21:22:46;;;;;;;7.38;2.88;;;;;;;18.83;57.71;95829.75;1029165;28;20109;-79
2021/06/14 21:23:16;;;;;;;6.13;2.65;;;;;;;18.75;58.11;95813.91;1037171;28;20105;-80
2021/06/14 21:23:47;;;;;;;6.40;2.90;;;;;;;18.83;57.97;95829.75;1037302;28;20479;-79
2021/06/14 21:24:17;;;;;;;7.10;3.08;;;;;;;18.66;58.27;95806.16;1041247;28;20048;-79
2021/06/14 21:24:48;;;;;;;6.00;2.70;;;;;;;18.83;58.11;95827.06;1036608;28;20499;-80
2021/06/14 21:25:19;;;;;;;6.30;2.22;;;;;;;18.83;58.16;95835.13;1032590;28;20113;-80
2021/06/14 21:25:49;;;;;;;5.57;2.53;;;;;;;18.68;58.12;95805.13;1040758;28;20045;-79
2021/06/14 21:26:20;;;;;;;6.85;2.80;;;;;;;18.82;58.04;95826.22;1036636;28;20116;-79
2021/06/14 21:26:50;;;;;;;6.68;2.78;;;;;;;18.69;57.53;95809.44;1028713;28;20113;-80
2021/06/14 21:27:21;;;;;;;5.60;2.80;;;;;;;18.74;57.83;95817.63;1032379;28;20137;-79
2021/06/14 21:27:51;;;;;;;6.25;2.45;;;;;;;18.80;58.04;95825.59;1040820;28;20403;-80
2021/06/14 21:28:22;;;;;;;6.82;2.67;;;;;;;18.81;58.41;95831.84;1036538;28;20113;-78
2021/06/14 21:28:53;;;;;;;5.57;2.55;;;;;;;18.82;58.43;95836.19;1032518;28;20113;-78
2021/06/14 21:29:27;;;;;;;5.80;3.15;;;;;;;18.78;58.26;95822.34;1032654;28;20113;-79
2021/06/14 21:29:58;;;;;;;6.22;3.05;;;;;;;18.81;58.14;95831.84;1040795;28;20572;-78
2021/06/14 21:30:29;;;;;;;5.63;3.13;;;;;;;18.76;58.38;95826.31;1036712;28;20111;-78
2021/06/14 21:30:59;;;;;;;5.63;2.80;;;;;;;18.79;58.47;95826.69;1044881;28;20059;-78
2021/06/14 21:31:30;;;;;;;6.47;2.60;;;;;;;18.62;57.38;95804.19;1041520;28;20536;-80
2021/06/14 21:32:00;;;;;;;6.20;3.15;;;;;;;18.81;58.10;95823.75;1036690;28;20044;-79
2021/06/14 21:32:31;;;;;;;7.25;3.00;;;;;;;18.78;58.24;95825.03;1036968;28;20029;-79
2021/06/14 21:33:02;;;;;;;5.07;2.67;;;;;;;18.78;58.50;95829.59;1033062;28;20118;-80
2021/06/14 21:33:34;;;;;;;6.35;2.63;;;;;;;18.75;58.42;95827.34;1037119;28;20407;-77
2021/06/14 21:34:09;;;;;;;4.18;2.40;;;;;;;18.64;57.20;95802.06;1045066;28;20057;-80
2021/06/14 21:34:40;;;;;;;8.30;2.67;;;;;;;18.73;57.84;95816.00;1040835;28;20032;-80
2021/06/14 21:35:12;;;;;;;5.38;2.67;;;;;;;18.65;58.36;95823.38;1036978;28;20566;-78
2021/06/14 21:35:43;;;;;;;9.32;2.85;;;;;;;18.73;58.13;95824.09;1036698;28;20033;-78
2021/06/14 21:36:13;;;;;;;7.93;2.53;;;;;;;18.70;57.95;95827.22;1028676;28;20141;-77
2021/06/14 21:36:44;;;;;;;8.80;3.00;;;;;;;18.63;58.01;95814.69;1041070;28;20049;-79
2021/06/14 21:37:14;;;;;;;7.93;2.90;;;;;;;18.71;58.09;95824.31;1045164;28;20059;-79
2021/06/14 21:37:45;;;;;;;7.50;2.63;;;;;;;18.66;58.05;95814.22;1036677;28;20427;-78
2021/06/14 21:38:15;;;;;;;5.40;2.55;;;;;;;18.80;56.79;95833.69;1032481;28;20169;-78
2021/06/14 21:38:46;;;;;;;5.30;3.05;;;;;;;18.80;56.22;95822.09;1036411;28;20135;-77
2021/06/14 21:39:22;;;;;;;9.40;3.40;;;;;;;18.86;56.03;95825.78;1039927;28;20060;-78
2021/06/14 21:39:53;;;;;;;7.90;4.20;;;;;;;18.89;57.05;95828.81;1036723;28;20022;-78
2021/06/14 21:40:24;;;;;;;7.88;3.45;;;;;;;18.72;59.04;95825.94;1032386;28;20109;-78
2021/06/14 21:40:54;;;;;;;10.63;3.70;;;;;;;18.59;59.57;95816.19;1032648;28;20026;-77
2021/06/14 21:41:25;;;;;;;6.85;3.58;;;;;;;18.69;60.00;95836.34;1032455;28;20092;-80
2021/06/14 21:41:55;;;;;;;11.93;4.00;;;;;;;18.55;60.35;95817.72;1032707;28;20086;-78
2021/06/14 21:42:26;;;;;;;7.78;3.38;;;;;;;18.54;60.44;95824.13;1036671;28;20145;-78
2021/06/14 21:42:56;;;;;;;9.32;3.88;;;;;;;18.60;60.89;95833.16;1040729;28;20112;-77
2021/06/14 21:43:27;;;;;;;7.53;3.92;;;;;;;18.50;60.95;95828.34;1032554;28;20033;-79
2021/06/14 21:43:57;;;;;;;7.85;3.45;;;;;;;18.52;61.04;95831.63;1028455;28;20527;-80
2021/06/14 21:44:28;;;;;;;10.07;3.50;;;;;;;18.47;61.24;95818.84;1032469;28;20065;-79
2021/06/14 21:44:59;;;;;;;9.73;3.45;;;;;;;18.43;61.25;95815.00;1036675;28;20112;-77
2021/06/14 21:45:30;;;;;;;9.52;3.78;;;;;;;18.41;60.91;95816.28;1036777;28;20026;-77
2021/06/14 21:46:00;;;;;;;6.57;3.45;;;;;;;18.50;60.88;95825.66;1036799;28;20072;-78
2021/06/14 21:46:31;;;;;;;6.38;3.30;;;;;;;18.47;60.70;95826.09;1036629;28;20069;-78
2021/06/14 21:47:02;;;;;;;7.47;3.65;;;;;;;18.45;60.98;95820.16;1032574;28;20104;-78
2021/06/14 21:47:32;;;;;;;6.18;3.25;;;;;;;18.43;61.15;95819.56;1036777;28;20101;-78
2021/06/14 21:48:03;;;;;;;7.45;3.50;;;;;;;18.41;60.85;95818.97;1044802;28;20454;-77
2021/06/14 21:48:34;;;;;;;5.40;3.10;;;;;;;18.49;60.89;95821.31;1036414;28;20048;-77
2021/06/14 21:49:04;;;;;;;6.45;3.80;;;;;;;18.44;60.98;95813.94;1036537;28;20060;-79
2021/06/14 21:49:35;;;;;;;7.20;3.80;;;;;;;18.52;60.57;95828.13;1040403;28;20120;-78
2021/06/14 21:50:05;;;;;;;5.72;2.83;;;;;;;18.49;60.62;95823.19;1036686;28;20105;-79
2021/06/14 21:50:36;;;;;;;6.43;3.25;;;;;;;18.46;60.80;95822.59;1032248;28;20364;-78
2021/06/14 21:51:07;;;;;;;9.43;3.72;;;;;;;18.51;60.59;95826.47;1040558;28;20104;-80
2021/06/14 21:51:37;;;;;;;8.20;3.28;;;;;;;18.46;60.39;95819.91;1024668;29;20098;-79
2021/06/14 21:52:08;;;;;;;8.00;3.38;;;;;;;18.45;60.47;95820.97;1036823;28;20145;-79
2021/06/14 21:52:39;;;;;;;7.05;3.75;;;;;;;18.41;60.65;95821.66;1036475;28;20046;-78